Time;durP1;ratioP1;P1;durP2;ratioP2;P2;SDS_P1;SDS_P2;PMS_P1;PMS_P2;Temp;Humidity;BMP_temperature;BMP_pressure;BME280_temperature;BME280_humidity;BME280_pressure;Samples;Min_cycle;Max_cycle;Signal;HPM_P1;HPM_P2
2022/08/30 00:01:11;;;;;;;17.52;8.57;;;;;;;20.33;92.43;98727.44;5029277;28;20037;-43
2022/08/30 00:03:45;;;;;;;15.47;6.93;;;;;;;20.40;91.75;98727.72;5030153;28;20041;-44
2022/08/30 00:06:14;;;;;;;15.63;7.40;;;;;;;20.35;91.90;98720.22;5030459;28;20501;-42
2022/08/30 00:08:41;;;;;;;19.42;7.15;;;;;;;20.39;91.34;98713.69;5028571;28;20069;-43
2022/08/30 00:11:11;;;;;;;15.88;7.22;;;;;;;20.43;91.33;98720.34;5030871;28;20056;-43
2022/08/30 00:13:40;;;;;;;18.92;7.53;;;;;;;20.36;91.64;98734.25;5028919;28;20072;-42
2022/08/30 00:16:06;;;;;;;15.85;7.18;;;;;;;20.29;92.18;98724.22;5028176;28;20045;-44
2022/08/30 00:18:33;;;;;;;16.17;6.53;;;;;;;20.20;92.08;98711.81;5028541;28;20140;-45
2022/08/30 00:21:00;;;;;;;13.02;6.53;;;;;;;20.20;92.48;98725.00;4997189;28;20208;-42
2022/08/30 00:23:25;;;;;;;15.93;7.43;;;;;;;20.20;93.02;98729.47;5025134;28;20037;-44
2022/08/30 00:25:51;;;;;;;18.42;7.20;;;;;;;20.15;93.30;98729.88;5025699;28;20055;-46
2022/08/30 00:28:18;;;;;;;17.38;7.78;;;;;;;20.12;93.69;98722.22;5029034;28;20154;-44
2022/08/30 00:30:44;;;;;;;20.50;8.43;;;;;;;20.09;94.06;98719.03;5029247;28;20044;-44
2022/08/30 00:33:10;;;;;;;14.93;7.57;;;;;;;19.80;94.32;98682.88;5029456;28;20041;-47
2022/08/30 00:35:38;;;;;;;15.75;7.97;;;;;;;20.02;94.60;98729.28;5028023;28;20128;-46
2022/08/30 00:38:05;;;;;;;17.50;7.60;;;;;;;19.78;94.57;98694.53;5029591;28;20037;-44
2022/08/30 00:40:32;;;;;;;15.93;7.03;;;;;;;20.00;94.78;98739.13;5028657;28;20100;-45
2022/08/30 00:43:02;;;;;;;13.82;7.57;;;;;;;19.98;95.09;98733.19;5028241;28;20021;-44
2022/08/30 00:45:31;;;;;;;16.48;7.32;;;;;;;20.04;94.99;98737.94;5027173;28;20167;-43
2022/08/30 00:47:57;;;;;;;14.43;6.68;;;;;;;19.84;94.86;98705.34;5027106;28;20437;-43
2022/08/30 00:50:27;;;;;;;12.13;7.25;;;;;;;19.96;95.34;98734.25;5029148;28;20897;-45
2022/08/30 00:52:55;;;;;;;18.27;7.22;;;;;;;19.90;95.52;98722.44;5028060;28;20071;-46
2022/08/30 00:55:21;;;;;;;15.93;7.30;;;;;;;19.93;95.59;98727.47;5026856;28;20044;-44
2022/08/30 00:57:51;;;;;;;14.15;7.55;;;;;;;19.88;95.76;98719.97;5028075;28;20319;-45
2022/08/30 01:00:17;;;;;;;15.55;7.82;;;;;;;19.95;95.70;98722.88;5026737;28;21050;-42
2022/08/30 01:02:43;;;;;;;16.92;7.70;;;;;;;19.94;95.54;98726.47;5028495;28;20038;-43
2022/08/30 01:05:10;;;;;;;13.52;6.53;;;;;;;19.98;95.56;98720.00;5026996;28;20068;-42
2022/08/30 01:07:38;;;;;;;17.70;8.15;;;;;;;20.08;94.58;98720.84;5043841;28;20045;-44
2022/08/30 01:10:04;;;;;;;17.42;8.05;;;;;;;20.12;94.16;98722.22;5027832;28;20073;-43
2022/08/30 01:12:31;;;;;;;16.50;7.30;;;;;;;20.11;93.78;98725.84;5026013;28;20041;-44
2022/08/30 01:14:58;;;;;;;17.67;7.88;;;;;;;19.83;94.32;98695.81;5025518;28;20041;-45
2022/08/30 01:17:24;;;;;;;13.15;7.32;;;;;;;19.99;94.44;98710.28;5028818;28;20045;-43
2022/08/30 01:19:59;;;;;;;19.50;7.28;;;;;;;19.96;94.64;98714.00;5027637;28;20049;-42
2022/08/30 01:22:41;;;;;;;15.00;7.13;;;;;;;19.94;94.65;98707.22;5025623;28;20041;-45
2022/08/30 01:25:09;;;;;;;12.48;7.45;;;;;;;19.86;94.84;98713.97;5011181;28;20077;-42
2022/08/30 01:27:43;;;;;;;;;;;;;;;19.81;95.44;98704.78;5028013;28;20152;-45
2022/08/30 01:30:10;;;;;;;14.43;6.95;;;;;;;19.74;95.44;98699.22;5020022;28;20282;-43
2022/08/30 01:32:43;;;;;;;17.42;7.07;;;;;;;19.69;96.07;98703.22;5023345;28;20132;-42
2022/08/30 01:35:11;;;;;;;16.85;6.93;;;;;;;19.64;96.47;98702.78;5028352;28;20509;-44
2022/08/30 01:37:38;;;;;;;20.55;8.07;;;;;;;19.60;96.89;98702.22;5027984;28;20049;-43
2022/08/30 01:40:05;;;;;;;13.35;6.75;;;;;;;19.58;97.09;98693.59;5031868;28;20547;-43
2022/08/30 01:42:32;;;;;;;12.82;6.85;;;;;;;19.58;97.32;98695.41;5031595;28;20374;-47
2022/08/30 01:44:57;;;;;;;17.65;7.85;;;;;;;19.57;97.34;98697.25;5032312;28;20029;-44
2022/08/30 01:47:23;;;;;;;16.10;7.75;;;;;;;19.42;97.41;98674.78;5031521;28;20515;-43
2022/08/30 01:49:50;;;;;;;14.95;7.35;;;;;;;19.54;97.59;98696.66;5031684;28;20041;-44
2022/08/30 01:52:16;;;;;;;18.15;7.22;;;;;;;19.46;97.89;98697.34;5032447;28;20127;-46
2022/08/30 01:54:43;;;;;;;21.77;8.35;;;;;;;19.29;98.31;98672.38;5030240;28;20127;-52
2022/08/30 01:57:14;;;;;;;13.45;7.80;;;;;;;19.37;98.83;98704.19;5031169;28;20121;-46
2022/08/30 01:59:42;;;;;;;13.68;7.32;;;;;;;19.29;99.63;98703.19;5032274;28;20124;-44
2022/08/30 02:02:08;;;;;;;17.43;7.20;;;;;;;19.25;100.00;98696.50;5032414;28;20037;-43
2022/08/30 02:04:35;;;;;;;13.20;7.70;;;;;;;19.23;100.00;98696.63;5030360;28;20803;-43
2022/08/30 02:07:02;;;;;;;17.02;7.32;;;;;;;19.19;100.00;98700.50;5031143;28;20136;-43
2022/08/30 02:09:28;;;;;;;15.35;7.35;;;;;;;19.01;100.00;98673.91;5030899;28;20107;-45
2022/08/30 02:11:54;;;;;;;11.38;7.28;;;;;;;19.13;100.00;98697.53;5032790;28;20792;-44
2022/08/30 02:14:20;;;;;;;17.70;8.57;;;;;;;19.10;100.00;98695.19;5029962;28;20033;-42
2022/08/30 02:16:46;;;;;;;21.73;9.55;;;;;;;19.08;100.00;98689.19;5042922;28;20080;-43
2022/08/30 02:19:11;;;;;;;21.52;9.43;;;;;;;19.11;100.00;98686.28;5031399;28;20095;-42
2022/08/30 02:21:37;;;;;;;18.85;9.30;;;;;;;19.10;100.00;98695.19;5030913;28;20045;-44
2022/08/30 02:24:03;;;;;;;15.98;9.40;;;;;;;18.92;100.00;98669.41;5031724;28;20069;-42
2022/08/30 02:26:29;;;;;;;21.92;9.60;;;;;;;19.05;100.00;98696.38;5031143;28;20402;-42
2022/08/30 02:28:55;;;;;;;19.27;8.90;;;;;;;18.94;100.00;98682.47;5029802;28;20060;-43
2022/08/30 02:31:21;;;;;;;19.08;8.50;;;;;;;19.10;100.00;98711.81;5030106;28;20037;-44
2022/08/30 02:33:49;;;;;;;13.63;8.35;;;;;;;19.09;100.00;98719.84;5032106;28;20045;-43
2022/08/30 02:36:15;;;;;;;18.55;8.55;;;;;;;19.04;100.00;98726.34;5029218;28;20467;-42
2022/08/30 02:38:40;;;;;;;18.88;8.38;;;;;;;19.03;100.00;98727.31;5030985;28;20124;-42
2022/08/30 02:41:06;;;;;;;16.17;8.90;;;;;;;18.96;100.00;98717.41;5031406;28;20123;-43
2022/08/30 02:43:32;;;;;;;18.85;8.98;;;;;;;18.94;100.00;98720.19;5029332;28;20132;-43
2022/08/30 02:45:58;;;;;;;19.20;8.70;;;;;;;18.92;100.00;98713.34;5029861;28;20049;-43
2022/08/30 02:48:24;;;;;;;15.82;8.93;;;;;;;18.80;100.00;98694.16;5029911;28;20045;-44
2022/08/30 02:50:51;;;;;;;15.00;8.43;;;;;;;18.86;100.00;98700.69;5030236;28;20034;-43
2022/08/30 02:53:17;;;;;;;17.08;8.45;;;;;;;18.91;100.00;98716.94;5029034;28;20029;-44
2022/08/30 02:55:43;;;;;;;21.85;9.02;;;;;;;18.95;100.00;98721.84;5044379;28;20429;-43
2022/08/30 02:58:10;;;;;;;13.32;8.95;;;;;;;18.93;100.00;98723.78;5030261;28;20045;-45
2022/08/30 03:00:36;;;;;;;19.90;8.95;;;;;;;18.92;100.00;98724.72;5029614;28;20041;-44
2022/08/30 03:03:02;;;;;;;18.88;9.45;;;;;;;18.92;100.00;98727.38;5029164;28;20091;-43
2022/08/30 03:05:29;;;;;;;23.70;10.10;;;;;;;18.83;100.00;98704.44;5030901;28;20096;-43
2022/08/30 03:07:55;;;;;;;15.30;9.13;;;;;;;18.92;100.00;98731.81;5030375;28;20049;-43
2022/08/30 03:10:21;;;;;;;16.52;8.77;;;;;;;18.95;100.00;98729.72;5030546;28;20047;-44
2022/08/30 03:12:47;;;;;;;18.75;9.07;;;;;;;18.82;100.00;98707.19;5030462;28;20095;-43
2022/08/30 03:15:14;;;;;;;20.88;9.00;;;;;;;18.92;100.00;98719.47;5029743;28;20052;-43
2022/08/30 03:17:40;;;;;;;12.95;8.65;;;;;;;18.82;100.00;98697.50;5031314;28;20037;-44
2022/08/30 03:20:07;;;;;;;15.55;8.55;;;;;;;18.74;100.00;98683.28;5029597;28;20045;-43
2022/08/30 03:22:33;;;;;;;16.60;9.02;;;;;;;19.03;100.00;98723.84;5029994;28;20095;-46
2022/08/30 03:25:00;;;;;;;15.43;8.00;;;;;;;19.06;100.00;98731.47;5030309;28;20506;-44
2022/08/30 03:27:27;;;;;;;22.33;8.52;;;;;;;19.10;100.00;98732.91;5028660;28;20398;-44
2022/08/30 03:29:53;;;;;;;17.48;8.70;;;;;;;19.18;100.00;98724.34;5029549;28;20041;-43
2022/08/30 03:32:19;;;;;;;14.70;8.43;;;;;;;19.25;100.00;98714.94;5030271;28;20048;-45
2022/08/30 03:34:45;;;;;;;15.27;8.95;;;;;;;19.21;100.00;98703.81;5031547;28;20091;-43
2022/08/30 03:37:11;;;;;;;15.93;8.10;;;;;;;19.47;99.58;98724.53;5030753;28;20540;-44
2022/08/30 03:39:37;;;;;;;20.83;8.18;;;;;;;19.48;98.13;98718.25;5029403;28;20253;-43
2022/08/30 03:42:03;;;;;;;20.75;9.75;;;;;;;19.63;97.25;98732.75;5030581;28;20045;-43
2022/08/30 03:44:29;;;;;;;20.75;8.43;;;;;;;19.65;96.50;98736.94;5029158;28;20411;-43
2022/08/30 03:46:55;;;;;;;18.58;8.88;;;;;;;19.71;96.00;98741.69;5029568;28;20136;-44
2022/08/30 03:49:21;;;;;;;20.52;8.70;;;;;;;19.68;95.71;98746.41;5030455;28;20087;-44
2022/08/30 03:51:47;;;;;;;18.13;8.48;;;;;;;19.63;95.42;98751.22;5031111;28;20053;-44
2022/08/30 03:54:13;;;;;;;14.20;8.60;;;;;;;19.58;95.72;98748.97;5028926;28;20049;-42
2022/08/30 03:56:39;;;;;;;20.60;9.15;;;;;;;19.57;95.83;98746.50;5030576;28;20069;-43
2022/08/30 03:59:05;;;;;;;15.85;9.57;;;;;;;19.61;95.73;98747.91;5030149;28;20453;-44
2022/08/30 04:01:31;;;;;;;15.68;9.10;;;;;;;19.67;95.10;98747.38;5027902;28;20056;-45
2022/08/30 04:03:57;;;;;;;20.63;8.85;;;;;;;19.68;94.99;98749.84;5029411;28;20522;-45
2022/08/30 04:06:23;;;;;;;16.67;8.85;;;;;;;19.81;94.46;98752.28;5029661;28;20071;-42
2022/08/30 04:08:49;;;;;;;18.42;9.10;;;;;;;19.77;93.93;98742.97;5029446;28;20060;-43
2022/08/30 04:11:15;;;;;;;20.05;9.10;;;;;;;19.80;93.48;98748.81;5029939;28;20103;-43
2022/08/30 04:13:42;;;;;;;18.55;9.68;;;;;;;19.51;93.59;98721.50;5028186;28;20067;-47
2022/08/30 04:16:08;;;;;;;20.30;9.27;;;;;;;19.76;93.65;98750.03;5029723;28;20560;-45
2022/08/30 04:18:34;;;;;;;18.45;9.27;;;;;;;19.75;93.45;98745.72;5043897;28;20048;-44
2022/08/30 04:21:01;;;;;;;18.50;9.88;;;;;;;19.85;93.04;98749.25;5029324;28;20402;-43
2022/08/30 04:23:27;;;;;;;18.90;10.02;;;;;;;19.92;92.55;98756.63;5026761;28;20041;-45
2022/08/30 04:25:54;;;;;;;16.92;9.77;;;;;;;19.88;92.22;98750.78;5029651;28;20052;-43
2022/08/30 04:28:20;;;;;;;18.90;10.63;;;;;;;20.00;91.51;98754.13;5027319;28;22160;-42
2022/08/30 04:30:46;;;;;;;13.98;9.48;;;;;;;19.93;91.61;98759.13;5028621;28;20052;-44
2022/08/30 04:33:13;;;;;;;22.15;9.85;;;;;;;19.94;91.57;98758.13;5009819;28;20041;-43
2022/08/30 04:35:44;;;;;;;20.10;10.65;;;;;;;20.11;90.73;98761.94;5011505;28;20143;-43
2022/08/30 04:38:12;;;;;;;22.25;10.57;;;;;;;20.08;90.50;98760.44;5026915;28;20048;-44
2022/08/30 04:40:43;;;;;;;18.02;10.18;;;;;;;20.24;89.84;98746.72;5027945;28;20521;-43
2022/08/30 04:43:11;;;;;;;17.92;10.20;;;;;;;20.32;88.89;98746.03;5030428;28;20087;-44
2022/08/30 04:45:38;;;;;;;19.73;10.35;;;;;;;20.15;88.32;98729.88;5028617;28;20076;-44
2022/08/30 04:48:05;;;;;;;16.40;10.57;;;;;;;20.45;87.84;98758.03;5029213;28;20095;-43
2022/08/30 04:50:31;;;;;;;18.20;9.40;;;;;;;20.41;87.05;98724.13;5028838;28;20461;-47
2022/08/30 04:53:08;;;;;;;18.02;10.85;;;;;;;20.64;86.09;98746.63;5028590;28;20210;-44
2022/08/30 04:55:34;;;;;;;21.67;10.27;;;;;;;20.56;85.43;98746.50;5022663;28;20037;-45
2022/08/30 04:58:00;;;;;;;19.98;11.05;;;;;;;20.60;85.71;98745.25;5027253;28;20084;-46
2022/08/30 05:00:26;;;;;;;18.60;10.63;;;;;;;20.58;85.37;98749.81;5029008;28;20099;-43
2022/08/30 05:02:53;;;;;;;19.20;11.07;;;;;;;20.55;85.37;98755.38;5029238;28;20037;-44
2022/08/30 05:08:03;;;;;;;17.92;10.55;;;;;;;20.73;84.39;98742.34;5028366;28;20037;-42
2022/08/30 05:10:29;;;;;;;21.80;11.50;;;;;;;20.79;83.99;98750.53;5026772;28;20132;-43
2022/08/30 05:12:54;;;;;;;23.67;11.57;;;;;;;20.89;83.38;98756.63;5029332;28;20544;-45
2022/08/30 05:15:21;;;;;;;15.70;10.63;;;;;;;20.99;82.89;98761.91;5032954;28;20051;-43
2022/08/30 05:17:47;;;;;;;17.17;10.98;;;;;;;21.08;82.31;98755.78;5030855;28;20106;-43
2022/08/30 05:20:13;;;;;;;19.63;10.45;;;;;;;21.09;81.97;98752.97;5030198;28;20517;-42
2022/08/30 05:22:48;;;;;;;21.58;11.27;;;;;;;21.23;81.53;98757.03;5030458;28;20049;-44
2022/08/30 05:25:16;;;;;;;19.92;10.80;;;;;;;21.31;80.69;98749.22;5028879;28;20037;-42
2022/08/30 05:27:42;;;;;;;22.53;11.67;;;;;;;21.44;80.23;98752.41;5031895;28;20582;-44
2022/08/30 05:30:09;;;;;;;24.73;11.35;;;;;;;21.50;79.31;98758.94;5031485;28;20128;-43
2022/08/30 05:32:35;;;;;;;26.65;11.55;;;;;;;21.50;78.61;98748.34;5032489;28;20052;-45
2022/08/30 05:35:00;;;;;;;24.95;11.55;;;;;;;21.65;77.72;98757.47;5032164;28;20045;-44
2022/08/30 05:37:26;;;;;;;20.77;11.00;;;;;;;21.80;76.93;98756.03;5031510;28;20045;-43
2022/08/30 05:39:52;;;;;;;19.13;10.82;;;;;;;22.01;76.17;98752.34;5032256;28;20131;-43
2022/08/30 05:42:18;;;;;;;21.25;11.52;;;;;;;21.96;75.86;98750.13;5031433;28;20439;-43
2022/08/30 05:44:44;;;;;;;23.20;11.48;;;;;;;22.05;75.42;98756.34;5031765;28;20051;-46
2022/08/30 05:47:10;;;;;;;27.33;12.18;;;;;;;22.06;74.94;98750.06;5032658;28;20513;-45
2022/08/30 05:49:36;;;;;;;22.73;11.05;;;;;;;22.11;74.61;98761.06;5032041;28;20041;-44
2022/08/30 05:52:03;;;;;;;20.35;11.50;;;;;;;22.27;73.70;98759.44;5032733;28;20052;-43
2022/08/30 05:54:29;;;;;;;18.77;12.07;;;;;;;21.96;73.43;98721.84;5031436;28;20477;-43
2022/08/30 05:56:54;;;;;;;24.65;11.93;;;;;;;22.23;73.18;98762.53;5031038;28;20041;-42
2022/08/30 05:59:21;;;;;;;27.42;11.57;;;;;;;22.32;72.86;98759.81;5031978;28;20041;-43
2022/08/30 06:01:47;;;;;;;24.60;11.48;;;;;;;22.37;72.43;98746.13;5031234;28;20056;-42
2022/08/30 06:04:13;;;;;;;18.02;11.82;;;;;;;22.65;71.44;98774.22;5032033;28;20034;-42
2022/08/30 06:06:41;;;;;;;24.08;12.13;;;;;;;22.80;70.61;98769.25;5030468;28;20033;-42
2022/08/30 06:09:08;;;;;;;27.42;11.82;;;;;;;23.20;69.02;98777.53;5031373;28;20062;-44
2022/08/30 06:11:35;;;;;;;20.77;12.07;;;;;;;23.64;66.71;98777.53;5031331;28;20041;-45
2022/08/30 06:14:02;;;;;;;17.65;11.55;;;;;;;24.14;64.77;98761.66;5029736;28;20048;-46
2022/08/30 06:16:28;;;;;;;21.83;12.20;;;;;;;24.84;61.86;98773.63;5031852;28;20048;-42
2022/08/30 06:18:55;;;;;;;19.98;11.00;;;;;;;25.57;60.46;98767.47;5031321;28;20037;-44
2022/08/30 06:21:26;;;;;;;21.60;11.30;;;;;;;26.20;57.36;98764.75;5029014;28;20041;-46
2022/08/30 06:23:53;;;;;;;17.88;12.15;;;;;;;26.70;55.20;98756.31;5030268;28;20037;-49
2022/08/30 06:26:19;;;;;;;17.63;11.82;;;;;;;27.12;53.94;98771.00;5030979;28;20088;-42
2022/08/30 06:28:45;;;;;;;23.90;11.80;;;;;;;27.75;52.31;98774.09;5030937;28;20061;-45
2022/08/30 06:31:13;;;;;;;19.70;11.00;;;;;;;28.95;50.33;98771.84;5028827;28;20425;-46
2022/08/30 06:33:39;;;;;;;21.77;12.45;;;;;;;29.91;47.56;98773.84;5027112;28;20425;-45
2022/08/30 06:36:07;;;;;;;20.88;11.95;;;;;;;29.56;46.84;98780.19;5030118;28;20037;-46
2022/08/30 06:38:33;;;;;;;;;;;;;;;29.94;46.00;98783.34;5029033;28;20041;-45
2022/08/30 06:40:59;;;;;;;24.85;12.70;;;;;;;30.36;44.70;98776.94;5030902;28;19967;-46
2022/08/30 06:43:25;;;;;;;23.52;12.80;;;;;;;30.61;44.27;98781.59;5028413;28;20087;-44
2022/08/30 06:45:51;;;;;;;20.58;12.43;;;;;;;31.26;42.65;98739.72;5029259;28;20140;-45
2022/08/30 06:48:17;;;;;;;15.18;11.20;;;;;;;31.89;41.16;98756.19;5030752;28;20501;-46
2022/08/30 06:50:43;;;;;;;19.33;12.52;;;;;;;31.92;40.18;98774.59;5030557;28;20048;-45
2022/08/30 06:53:09;;;;;;;16.00;11.38;;;;;;;31.80;40.83;98774.41;5030647;28;20037;-45
2022/08/30 06:55:36;;;;;;;24.63;13.27;;;;;;;33.08;38.42;98786.06;5028982;28;20052;-46
2022/08/30 06:58:04;;;;;;;20.55;12.90;;;;;;;33.12;37.54;98777.31;5028701;28;20428;-45
2022/08/30 07:00:30;;;;;;;20.48;12.70;;;;;;;33.45;37.67;98784.31;5029745;28;20127;-49
2022/08/30 07:02:56;;;;;;;24.30;12.27;;;;;;;33.65;36.97;98776.03;5026461;28;20132;-44
2022/08/30 07:05:22;;;;;;;18.77;12.13;;;;;;;34.43;35.15;98772.47;5029355;28;20057;-49
2022/08/30 07:07:52;;;;;;;18.90;11.52;;;;;;;35.54;34.21;98771.81;5029732;28;20809;-46
2022/08/30 07:10:18;;;;;;;18.58;12.35;;;;;;;35.68;33.13;98775.97;5030620;28;20041;-50
2022/08/30 07:12:44;;;;;;;19.58;12.48;;;;;;;34.79;34.10;98766.19;5028977;28;20136;-49
2022/08/30 07:15:10;;;;;;;23.02;12.27;;;;;;;34.40;34.42;98764.81;5039909;28;20045;-49
2022/08/30 07:20:20;;;;;;;18.52;12.35;;;;;;;32.28;37.54;98766.00;5029640;28;20527;-50
2022/08/30 07:22:47;;;;;;;21.02;11.25;;;;;;;31.42;38.90;98749.22;5028439;28;20041;-49
2022/08/30 07:25:14;;;;;;;15.40;11.18;;;;;;;30.81;39.72;98770.06;5028071;28;20055;-45
2022/08/30 07:27:40;;;;;;;15.13;11.77;;;;;;;31.44;38.87;98769.50;5026276;28;20049;-44
2022/08/30 07:30:07;;;;;;;15.70;11.02;;;;;;;33.34;35.93;98775.06;5026787;28;20037;-46
2022/08/30 07:32:51;;;;;;;18.60;10.82;;;;;;;34.31;34.49;98771.59;5029379;28;20052;-43
2022/08/30 07:35:17;;;;;;;17.90;11.07;;;;;;;34.71;33.27;98754.88;5027712;28;20042;-45
2022/08/30 07:37:42;;;;;;;16.40;11.23;;;;;;;35.54;32.72;98777.22;5029174;28;20094;-45
2022/08/30 07:40:09;;;;;;;22.05;12.27;;;;;;;36.80;31.26;98775.56;5029687;28;20071;-44
2022/08/30 07:42:36;;;;;;;24.17;12.85;;;;;;;37.23;30.13;98775.78;5029557;28;20094;-46
2022/08/30 07:45:02;;;;;;;18.58;11.38;;;;;;;37.67;29.57;98784.09;5029220;28;20029;-46
2022/08/30 07:47:30;;;;;;;16.15;11.70;;;;;;;37.21;29.83;98787.97;5028172;28;20037;-46
2022/08/30 07:50:01;;;;;;;18.00;11.90;;;;;;;36.53;30.22;98749.03;5030143;28;20049;-46
2022/08/30 07:52:29;;;;;;;16.42;11.93;;;;;;;37.18;29.41;98780.31;5027080;28;20420;-45
2022/08/30 07:54:56;;;;;;;15.50;11.27;;;;;;;38.22;28.18;98780.47;5027741;28;20650;-42
2022/08/30 07:57:40;;;;;;;19.10;12.35;;;;;;;37.90;28.43;98753.16;5029895;28;20068;-44
2022/08/30 08:00:07;;;;;;;15.95;12.00;;;;;;;38.20;28.00;98760.94;5030426;28;20531;-44
2022/08/30 08:02:39;;;;;;;14.10;11.70;;;;;;;38.40;27.50;98759.25;5029840;28;20505;-44
2022/08/30 08:05:07;;;;;;;;;;;;;;;39.05;27.02;98779.25;5029022;28;20029;-44
2022/08/30 08:07:33;;;;;;;15.82;11.63;;;;;;;38.64;26.83;98772.56;5061367;28;19917;-48
2022/08/30 08:09:59;;;;;;;14.63;11.73;;;;;;;37.91;27.38;98777.34;5029259;28;20540;-45
2022/08/30 08:12:26;;;;;;;17.33;11.43;;;;;;;38.40;26.88;98781.00;5029928;28;20038;-45
2022/08/30 08:14:52;;;;;;;17.02;13.25;;;;;;;38.97;26.34;98778.63;5029087;28;20155;-49
2022/08/30 08:17:18;;;;;;;18.45;11.95;;;;;;;37.76;27.56;98785.28;5029116;28;20567;-44
2022/08/30 08:19:43;;;;;;;18.88;11.73;;;;;;;37.36;28.16;98777.34;5028162;28;20049;-45
2022/08/30 08:22:09;;;;;;;17.42;11.68;;;;;;;38.19;27.01;98781.81;5029495;28;20041;-46
2022/08/30 08:24:35;;;;;;;29.80;13.93;;;;;;;38.27;27.11;98770.50;5029031;28;20044;-44
2022/08/30 08:27:01;;;;;;;24.85;11.93;;;;;;;38.43;27.08;98755.19;5028974;28;20620;-44
2022/08/30 08:29:27;;;;;;;24.90;11.82;;;;;;;39.48;26.18;98770.06;5028978;28;20061;-46
2022/08/30 08:31:53;;;;;;;21.50;13.88;;;;;;;40.30;24.74;98758.56;5029893;28;20052;-45
2022/08/30 08:34:22;;;;;;;22.20;11.68;;;;;;;39.70;25.17;98771.59;5029019;28;20049;-46
2022/08/30 08:36:49;;;;;;;20.35;11.50;;;;;;;38.17;26.28;98767.66;5029489;28;20533;-46
2022/08/30 08:39:15;;;;;;;14.43;11.35;;;;;;;38.19;26.58;98762.81;5028123;28;20041;-46
2022/08/30 08:42:03;;;;;;;14.02;11.57;;;;;;;38.93;25.74;98768.53;5027726;28;20072;-43
2022/08/30 08:44:36;;;;;;;;;;;;;;;39.36;25.19;98762.13;5029820;28;20176;-43
2022/08/30 08:47:12;;;;;;;19.00;11.35;;;;;;;39.78;25.08;98765.66;5027962;28;19916;-44
2022/08/30 08:49:40;;;;;;;22.67;12.73;;;;;;;38.45;26.19;98769.38;5020167;28;20560;-42
2022/08/30 08:54:57;;;;;;;19.15;11.45;;;;;;;39.34;25.50;98769.72;5028550;28;20234;-44
2022/08/30 08:57:23;;;;;;;19.50;11.38;;;;;;;40.06;24.76;98771.78;5027139;28;20045;-44
2022/08/30 08:59:53;;;;;;;17.00;11.40;;;;;;;40.75;24.03;98774.22;5026651;28;20589;-44
2022/08/30 09:02:24;;;;;;;14.85;10.90;;;;;;;40.67;23.20;98780.22;5025608;28;20046;-46
2022/08/30 09:04:53;;;;;;;20.13;11.77;;;;;;;40.29;23.90;98778.72;5029407;28;20064;-43
2022/08/30 09:07:23;;;;;;;14.15;11.52;;;;;;;40.22;24.17;98774.34;5043895;28;20049;-46
2022/08/30 09:09:49;;;;;;;16.67;12.20;;;;;;;40.32;23.77;98770.81;5028658;28;20110;-47
2022/08/30 09:12:15;;;;;;;14.13;12.07;;;;;;;40.11;23.63;98782.69;5010701;28;20562;-47
2022/08/30 09:14:44;;;;;;;20.92;12.52;;;;;;;41.00;23.40;98785.97;5027769;28;20037;-44
2022/08/30 09:17:12;;;;;;;16.08;10.85;;;;;;;42.58;21.48;98784.56;5027119;28;20046;-44
2022/08/30 09:19:53;;;;;;;13.88;11.25;;;;;;;42.75;20.92;98786.13;5025137;28;20044;-41
2022/08/30 09:22:52;;;;;;;15.88;11.65;;;;;;;42.59;20.88;98788.13;5024634;28;20187;-41
2022/08/30 09:25:31;;;;;;;14.90;11.25;;;;;;;42.52;21.08;98782.97;5011721;28;20054;-45
2022/08/30 09:28:21;;;;;;;15.65;11.38;;;;;;;42.53;20.66;98757.25;5028800;28;20065;-44
2022/08/30 09:31:29;;;;;;;17.00;11.05;;;;;;;43.12;20.14;98780.13;5043493;28;20037;-44
2022/08/30 09:34:07;;;;;;;16.10;11.75;;;;;;;43.92;19.62;98787.59;5022901;28;20041;-46
2022/08/30 09:36:45;;;;;;;21.05;12.48;;;;;;;45.08;18.89;98792.63;4978502;28;20632;-44
2022/08/30 09:39:17;;;;;;;18.45;11.05;;;;;;;44.46;19.00;98786.38;5011149;28;20478;-46
2022/08/30 09:41:45;;;;;;;16.38;10.15;;;;;;;45.75;17.72;98784.88;5010132;28;20434;-47
2022/08/30 09:44:23;;;;;;;16.27;11.55;;;;;;;46.64;17.29;98785.25;5028839;28;20128;-45
2022/08/30 09:46:57;;;;;;;14.63;11.52;;;;;;;46.39;17.06;98783.84;5028343;28;20171;-48
2022/08/30 09:49:36;;;;;;;15.82;11.18;;;;;;;45.34;18.28;98779.28;4993138;28;20425;-44
2022/08/30 09:52:17;;;;;;;12.00;10.57;;;;;;;45.12;17.47;98780.75;5009475;28;20052;-43
2022/08/30 09:55:08;;;;;;;18.55;11.30;;;;;;;44.97;17.61;98778.22;5010793;28;20073;-45
2022/08/30 09:57:55;;;;;;;12.20;10.18;;;;;;;44.54;17.44;98774.78;5028070;28;20577;-47
2022/08/30 10:00:24;;;;;;;12.77;10.40;;;;;;;44.84;17.24;98769.94;5031085;28;20034;-47
2022/08/30 10:03:42;;;;;;;15.93;9.93;;;;;;;44.65;17.47;98772.66;5013723;28;20037;-44
2022/08/30 10:06:20;;;;;;;14.15;12.13;;;;;;;44.66;17.67;98766.09;5005580;28;20139;-45
2022/08/30 10:08:58;;;;;;;14.52;10.50;;;;;;;43.21;18.63;98767.47;5012510;28;20572;-43
2022/08/30 10:11:46;;;;;;;11.82;9.80;;;;;;;43.80;17.96;98775.38;5011411;28;20092;-44
2022/08/30 10:14:36;;;;;;;11.93;9.55;;;;;;;43.70;18.52;98767.28;4994849;28;20062;-45
2022/08/30 10:17:11;;;;;;;15.07;10.52;;;;;;;44.41;17.54;98764.53;5011347;28;20052;-44
2022/08/30 10:20:05;;;;;;;10.65;9.50;;;;;;;45.02;17.15;98767.16;5028100;28;20037;-48
2022/08/30 10:22:57;;;;;;;11.02;9.13;;;;;;;44.01;17.40;98768.59;5030204;28;20107;-44
2022/08/30 10:25:34;;;;;;;12.63;9.65;;;;;;;42.35;18.51;98752.44;5024570;28;20518;-46
2022/08/30 10:28:18;;;;;;;16.25;10.85;;;;;;;42.50;18.37;98766.00;5027654;28;20093;-44
2022/08/30 10:30:51;;;;;;;15.95;9.10;;;;;;;43.17;17.90;98750.00;5012206;28;20073;-45
2022/08/30 10:33:24;;;;;;;11.85;9.23;;;;;;;44.42;16.72;98766.16;5011072;28;20091;-47
2022/08/30 10:35:53;;;;;;;11.23;9.00;;;;;;;45.10;16.75;98769.28;5021560;28;20099;-45
2022/08/30 10:38:21;;;;;;;11.90;9.57;;;;;;;45.43;16.01;98772.03;5028759;28;20056;-43
2022/08/30 10:43:59;;;;;;;9.63;8.73;;;;;;;43.95;16.66;98760.72;5031410;28;20139;-46
2022/08/30 10:46:46;;;;;;;14.35;9.02;;;;;;;42.86;17.41;98752.16;5013790;28;20176;-53
2022/08/30 10:49:21;;;;;;;30.92;20.48;;;;;;;44.02;16.84;98756.50;5023400;28;20110;-44
2022/08/30 10:51:57;;;;;;;15.50;9.13;;;;;;;45.31;15.90;98769.72;5031372;28;20045;-43
2022/08/30 10:54:50;;;;;;;14.30;9.23;;;;;;;45.29;15.65;98762.91;5024307;28;20036;-43
2022/08/30 10:57:17;;;;;;;14.07;9.77;;;;;;;44.49;16.66;98763.06;5030012;28;20052;-46
2022/08/30 10:59:47;;;;;;;13.43;11.00;;;;;;;44.85;16.55;98758.69;5015751;28;20042;-47
2022/08/30 11:02:55;;;;;;;14.27;9.85;;;;;;;45.72;15.72;98760.75;5009955;28;20308;-45
2022/08/30 11:05:39;;;;;;;20.60;14.48;;;;;;;46.21;15.49;98765.56;5020686;28;20136;-48
2022/08/30 11:08:08;;;;;;;10.77;9.10;;;;;;;46.97;15.13;98761.09;5028940;28;20087;-47
2022/08/30 11:10:37;;;;;;;16.00;11.20;;;;;;;47.47;14.91;98759.81;5019338;28;20136;-45
2022/08/30 11:13:15;;;;;;;14.77;10.95;;;;;;;44.81;17.30;98765.84;5028301;28;20045;-48
2022/08/30 11:15:56;;;;;;;14.10;10.50;;;;;;;42.50;19.11;98740.63;5045860;28;20405;-43
2022/08/30 11:18:23;;;;;;;16.00;10.90;;;;;;;42.82;18.58;98740.13;5027606;28;20487;-45
2022/08/30 11:20:52;;;;;;;14.23;10.52;;;;;;;43.69;17.61;98736.34;5030863;28;20096;-46
2022/08/30 11:23:17;;;;;;;17.13;11.98;;;;;;;43.90;18.16;98745.16;5027549;28;20091;-45
2022/08/30 11:26:01;;;;;;;17.48;13.27;;;;;;;43.16;19.00;98734.69;5010816;28;20124;-45
2022/08/30 11:28:37;;;;;;;21.45;13.10;;;;;;;40.39;21.33;98738.72;5014205;28;20064;-47
2022/08/30 11:31:29;;;;;;;17.70;13.07;;;;;;;39.24;22.85;98742.41;5030128;28;20106;-46
2022/08/30 11:33:58;;;;;;;15.05;12.20;;;;;;;38.80;23.18;98736.31;5026841;28;20053;-49
2022/08/30 11:36:37;;;;;;;16.38;12.90;;;;;;;38.20;24.02;98731.06;5029501;28;20037;-45
2022/08/30 11:39:11;;;;;;;19.95;13.05;;;;;;;37.94;24.14;98738.06;5029731;28;20037;-41
2022/08/30 11:41:40;;;;;;;18.30;12.02;;;;;;;36.69;25.77;98739.31;5030860;28;20037;-46
2022/08/30 11:44:21;;;;;;;25.33;12.73;;;;;;;36.70;26.34;98735.56;5028946;28;20042;-46